Capt Craig — WDG7988 — position and weather

sailwx.info

Track history (hours):
 
Tides and Currents Weather Stations Pressure Air Temp Water Temp Dewpoint Dewpoint Depression Visibility Wind Speed Wind Dir Waves Ship Positions

Capt Craig

Owner: Capt Craig Towing, LLC, Hull, TX. More information available from US FCC via Universal Licensing System and Coast Guard Vessel Documentation Center.

Last reported at 2017-Oct-19 03:54 UTC. Time now 2017-Oct-19 05:33 UTC.
Position N 29°44' W 095°07'.

MMSI: 365789314.

Date/timePositionNaut miles runAvg speedWind from/ knotsBaromVisibWave heightAir tempDewpointWater temp
2017-Oct-19 03:54N 29°44' W 095°07'2 1.8
2017-Oct-19 02:50N 29°45' W 095°06'3 7.9
2017-Oct-19 02:30N 29°44' W 095°08'5 7.1
2017-Oct-19 01:52N 29°44' W 095°13'1 0.4
2017-Oct-19 00:30N 29°43' W 095°14'1 2.4
2017-Oct-19 00:00N 29°44' W 095°13'1 1.2
2017-Oct-18 23:22N 29°44' W 095°12'0 0.0
2017-Oct-18 22:54N 29°44' W 095°12'0 0.0
2017-Oct-18 22:09N 29°44' W 095°12'0 0.0
2017-Oct-18 21:56N 29°44' W 095°12'0 0.0
2017-Oct-18 21:25N 29°44' W 095°12'0 0.0
2017-Oct-18 21:00N 29°44' W 095°12'1 1.9
2017-Oct-18 20:30N 29°45' W 095°11'7 2.0
2017-Oct-18 17:13N 29°45' W 095°04'3 5.0
2017-Oct-18 16:41N 29°43' W 095°01'0 0.0
2017-Oct-18 16:18N 29°43' W 095°01'1 2.8
2017-Oct-18 15:50N 29°44' W 095°03'3 1.3
2017-Oct-18 13:32N 29°45' W 095°06'0 0.0
2017-Oct-18 13:11N 29°45' W 095°06'0 0.0
2017-Oct-18 13:00N 29°45' W 095°06'0 0.0
2017-Oct-18 12:30N 29°45' W 095°06'0 0.0
2017-Oct-18 11:57N 29°45' W 095°06'0 0.0
2017-Oct-18 11:28N 29°45' W 095°06'0 1.0
2017-Oct-18 10:59N 29°45' W 095°06'1 0.0
2017-Oct-17 00:29N 29°46' W 095°06'2 4.5
2017-Oct-16 23:59N 29°44' W 095°07'0 0.1
2017-Oct-16 23:19N 29°44' W 095°07'2 0.1
2017-Oct-15 05:38N 29°46' W 095°06'1 3.0
2017-Oct-15 05:25N 29°46' W 095°05'3 7.2
2017-Oct-15 04:56N 29°44' W 095°09'3 1.9
2017-Oct-15 03:17N 29°44' W 095°12'2 5.7
2017-Oct-15 02:55N 29°45' W 095°10'4 0.7
2017-Oct-14 21:48N 29°46' W 095°06'1 0.2
2017-Oct-14 17:00N 29°45' W 095°06'1 0.1
2017-Oct-14 03:27N 29°46' W 095°06'2 0.5
2017-Oct-13 22:47N 29°44' W 095°08'3 0.9
2017-Oct-13 19:57N 29°46' W 095°05'2 0.1
2017-Oct-13 01:07N 29°44' W 095°07'0 0.1
2017-Oct-13 00:50N 29°44' W 095°07'0 0.0
2017-Oct-13 00:09N 29°44' W 095°07'0 0.0
2017-Oct-12 23:57N 29°44' W 095°07'1 0.2
2017-Oct-12 20:49N 29°44' W 095°08'5 3.1
2017-Oct-12 19:20N 29°44' W 095°13'0 0.0
2017-Oct-12 18:58N 29°44' W 095°13'2 3.2
2017-Oct-12 18:29N 29°45' W 095°12'3 0.1
2017-Oct-11 18:14N 29°44' W 095°08'0 0.0
2017-Oct-11 17:52N 29°44' W 095°08'0 0.0
2017-Oct-11 17:30N 29°44' W 095°08'2 0.1
2017-Oct-10 17:01N 29°46' W 095°06'0 3.9
2017-Oct-10 17:01N 29°46' W 095°06'0 0.0
2017-Oct-10 00:48N 29°46' W 095°06'2 6.2
2017-Oct-10 00:24N 29°45' W 095°04'2 1.5
2017-Oct-09 22:47N 29°44' W 095°01'0 0.2
2017-Oct-09 21:55N 29°44' W 095°01'1 2.0
2017-Oct-09 21:30N 29°43' W 095°01'1 2.5
2017-Oct-09 20:55N 29°44' W 095°02'4 1.2
2017-Oct-09 17:36N 29°46' W 095°06'1 3.7
2017-Oct-09 17:22N 29°46' W 095°05'3 7.8
2017-Oct-09 17:00N 29°44' W 095°08'4 6.9
2017-Oct-09 16:28N 29°44' W 095°12'0 0.0
2017-Oct-09 15:59N 29°44' W 095°12'3 5.6
2017-Oct-09 15:30N 29°44' W 095°09'  
Track history (hours):
 
Tides and Currents Weather Stations Pressure Air Temp Water Temp Dewpoint Dewpoint Depression Visibility Wind Speed Wind Dir Waves Ship Positions

Capt Craig

Owner: Capt Craig Towing, LLC, Hull, TX. More information available from US FCC via Universal Licensing System and Coast Guard Vessel Documentation Center.

Last reported at 2017-Oct-19 03:54 UTC. Time now 2017-Oct-19 05:33 UTC.
Position N 29°44' W 095°07'.

MMSI: 365789314.

Date/timePositionNaut miles runAvg speedWind from/ knotsBaromVisibWave heightAir tempDewpointWater temp
2017-Oct-19 03:54N 29°44' W 095°07'2 1.8
2017-Oct-19 02:50N 29°45' W 095°06'3 7.9
2017-Oct-19 02:30N 29°44' W 095°08'5 7.1
2017-Oct-19 01:52N 29°44' W 095°13'1 0.4
2017-Oct-19 00:30N 29°43' W 095°14'1 2.4
2017-Oct-19 00:00N 29°44' W 095°13'1 1.2
2017-Oct-18 23:22N 29°44' W 095°12'0 0.0
2017-Oct-18 22:54N 29°44' W 095°12'0 0.0
2017-Oct-18 22:09N 29°44' W 095°12'0 0.0
2017-Oct-18 21:56N 29°44' W 095°12'0 0.0
2017-Oct-18 21:25N 29°44' W 095°12'0 0.0
2017-Oct-18 21:00N 29°44' W 095°12'1 1.9
2017-Oct-18 20:30N 29°45' W 095°11'7 2.0
2017-Oct-18 17:13N 29°45' W 095°04'3 5.0
2017-Oct-18 16:41N 29°43' W 095°01'0 0.0
2017-Oct-18 16:18N 29°43' W 095°01'1 2.8
2017-Oct-18 15:50N 29°44' W 095°03'3 1.3
2017-Oct-18 13:32N 29°45' W 095°06'0 0.0
2017-Oct-18 13:11N 29°45' W 095°06'0 0.0
2017-Oct-18 13:00N 29°45' W 095°06'0 0.0
2017-Oct-18 12:30N 29°45' W 095°06'0 0.0
2017-Oct-18 11:57N 29°45' W 095°06'0 0.0
2017-Oct-18 11:28N 29°45' W 095°06'0 1.0
2017-Oct-18 10:59N 29°45' W 095°06'1 0.0
2017-Oct-17 00:29N 29°46' W 095°06'2 4.5
2017-Oct-16 23:59N 29°44' W 095°07'0 0.1
2017-Oct-16 23:19N 29°44' W 095°07'2 0.1
2017-Oct-15 05:38N 29°46' W 095°06'1 3.0
2017-Oct-15 05:25N 29°46' W 095°05'3 7.2
2017-Oct-15 04:56N 29°44' W 095°09'3 1.9
2017-Oct-15 03:17N 29°44' W 095°12'2 5.7
2017-Oct-15 02:55N 29°45' W 095°10'4 0.7
2017-Oct-14 21:48N 29°46' W 095°06'1 0.2
2017-Oct-14 17:00N 29°45' W 095°06'1 0.1
2017-Oct-14 03:27N 29°46' W 095°06'2 0.5
2017-Oct-13 22:47N 29°44' W 095°08'3 0.9
2017-Oct-13 19:57N 29°46' W 095°05'2 0.1
2017-Oct-13 01:07N 29°44' W 095°07'0 0.1
2017-Oct-13 00:50N 29°44' W 095°07'0 0.0
2017-Oct-13 00:09N 29°44' W 095°07'0 0.0
2017-Oct-12 23:57N 29°44' W 095°07'1 0.2
2017-Oct-12 20:49N 29°44' W 095°08'5 3.1
2017-Oct-12 19:20N 29°44' W 095°13'0 0.0
2017-Oct-12 18:58N 29°44' W 095°13'2 3.2
2017-Oct-12 18:29N 29°45' W 095°12'3 0.1
2017-Oct-11 18:14N 29°44' W 095°08'0 0.0
2017-Oct-11 17:52N 29°44' W 095°08'0 0.0
2017-Oct-11 17:30N 29°44' W 095°08'2 0.1
2017-Oct-10 17:01N 29°46' W 095°06'0 3.9
2017-Oct-10 17:01N 29°46' W 095°06'0 0.0
2017-Oct-10 00:48N 29°46' W 095°06'2 6.2
2017-Oct-10 00:24N 29°45' W 095°04'2 1.5
2017-Oct-09 22:47N 29°44' W 095°01'0 0.2
2017-Oct-09 21:55N 29°44' W 095°01'1 2.0
2017-Oct-09 21:30N 29°43' W 095°01'1 2.5
2017-Oct-09 20:55N 29°44' W 095°02'4 1.2
2017-Oct-09 17:36N 29°46' W 095°06'1 3.7
2017-Oct-09 17:22N 29°46' W 095°05'3 7.8
2017-Oct-09 17:00N 29°44' W 095°08'4 6.9
2017-Oct-09 16:28N 29°44' W 095°12'0 0.0
2017-Oct-09 15:59N 29°44' W 095°12'3 5.6
2017-Oct-09 15:30N 29°44' W 095°09'  

Dump ship's entire track history